sensor_id;sensor_type;location;lat;lon;timestamp;P1;durP1;ratioP1;P2;durP2;ratioP2
21192;SDS011;10754;51.106;7.164;2022-10-31T00:01:57;5.68;;;3.08;;
21192;SDS011;10754;51.106;7.164;2022-10-31T00:04:23;5.13;;;3.67;;
21192;SDS011;10754;51.106;7.164;2022-10-31T00:06:48;4.35;;;3.45;;
21192;SDS011;10754;51.106;7.164;2022-10-31T00:09:14;8.52;;;3.50;;
21192;SDS011;10754;51.106;7.164;2022-10-31T00:11:39;5.50;;;3.58;;
21192;SDS011;10754;51.106;7.164;2022-10-31T00:14:05;4.00;;;3.40;;
21192;SDS011;10754;51.106;7.164;2022-10-31T00:16:31;4.93;;;3.47;;
21192;SDS011;10754;51.106;7.164;2022-10-31T00:19:01;4.80;;;3.80;;
21192;SDS011;10754;51.106;7.164;2022-10-31T00:21:28;5.97;;;3.40;;
21192;SDS011;10754;51.106;7.164;2022-10-31T00:23:54;5.78;;;3.47;;
21192;SDS011;10754;51.106;7.164;2022-10-31T00:26:20;7.38;;;3.40;;
21192;SDS011;10754;51.106;7.164;2022-10-31T00:28:45;3.75;;;3.10;;
21192;SDS011;10754;51.106;7.164;2022-10-31T00:31:11;4.72;;;3.40;;
21192;SDS011;10754;51.106;7.164;2022-10-31T00:33:38;8.30;;;3.50;;
21192;SDS011;10754;51.106;7.164;2022-10-31T00:36:05;3.78;;;3.40;;
21192;SDS011;10754;51.106;7.164;2022-10-31T00:38:31;5.63;;;3.45;;
21192;SDS011;10754;51.106;7.164;2022-10-31T00:40:57;6.43;;;3.60;;
21192;SDS011;10754;51.106;7.164;2022-10-31T00:43:22;6.13;;;3.80;;
21192;SDS011;10754;51.106;7.164;2022-10-31T00:45:48;9.27;;;4.03;;
21192;SDS011;10754;51.106;7.164;2022-10-31T00:48:14;4.30;;;3.50;;
21192;SDS011;10754;51.106;7.164;2022-10-31T00:50:39;7.68;;;4.13;;
21192;SDS011;10754;51.106;7.164;2022-10-31T00:53:06;5.55;;;3.88;;
21192;SDS011;10754;51.106;7.164;2022-10-31T00:55:32;7.13;;;3.63;;
21192;SDS011;10754;51.106;7.164;2022-10-31T00:57:58;4.80;;;3.30;;
21192;SDS011;10754;51.106;7.164;2022-10-31T01:00:23;4.90;;;3.75;;
21192;SDS011;10754;51.106;7.164;2022-10-31T01:02:49;5.03;;;2.80;;
21192;SDS011;10754;51.106;7.164;2022-10-31T01:05:15;6.20;;;3.75;;
21192;SDS011;10754;51.106;7.164;2022-10-31T01:07:41;6.78;;;3.60;;
21192;SDS011;10754;51.106;7.164;2022-10-31T01:10:06;5.05;;;3.63;;
21192;SDS011;10754;51.106;7.164;2022-10-31T01:12:39;4.72;;;3.45;;
21192;SDS011;10754;51.106;7.164;2022-10-31T01:15:09;4.45;;;3.50;;
21192;SDS011;10754;51.106;7.164;2022-10-31T01:17:36;6.15;;;3.28;;
21192;SDS011;10754;51.106;7.164;2022-10-31T01:20:03;7.35;;;3.42;;
21192;SDS011;10754;51.106;7.164;2022-10-31T01:22:30;5.43;;;3.78;;
21192;SDS011;10754;51.106;7.164;2022-10-31T01:24:55;5.78;;;3.72;;
21192;SDS011;10754;51.106;7.164;2022-10-31T01:27:21;7.20;;;3.80;;
21192;SDS011;10754;51.106;7.164;2022-10-31T01:29:46;6.03;;;3.67;;
21192;SDS011;10754;51.106;7.164;2022-10-31T01:32:12;4.32;;;3.35;;
21192;SDS011;10754;51.106;7.164;2022-10-31T01:34:37;5.35;;;3.85;;
21192;SDS011;10754;51.106;7.164;2022-10-31T01:37:04;6.15;;;3.65;;
21192;SDS011;10754;51.106;7.164;2022-10-31T01:39:29;8.55;;;3.53;;
21192;SDS011;10754;51.106;7.164;2022-10-31T01:41:54;6.25;;;4.03;;
21192;SDS011;10754;51.106;7.164;2022-10-31T01:46:46;5.43;;;3.28;;
21192;SDS011;10754;51.106;7.164;2022-10-31T01:52:04;6.15;;;3.83;;
21192;SDS011;10754;51.106;7.164;2022-10-31T01:54:37;7.07;;;4.00;;
21192;SDS011;10754;51.106;7.164;2022-10-31T01:57:08;5.97;;;3.45;;
21192;SDS011;10754;51.106;7.164;2022-10-31T01:59:36;4.90;;;3.72;;
21192;SDS011;10754;51.106;7.164;2022-10-31T02:02:07;4.22;;;3.45;;
21192;SDS011;10754;51.106;7.164;2022-10-31T02:04:32;5.25;;;3.65;;
21192;SDS011;10754;51.106;7.164;2022-10-31T02:07:03;5.78;;;3.45;;
21192;SDS011;10754;51.106;7.164;2022-10-31T02:09:33;6.97;;;3.67;;
21192;SDS011;10754;51.106;7.164;2022-10-31T02:12:00;9.10;;;3.78;;
21192;SDS011;10754;51.106;7.164;2022-10-31T02:14:27;6.85;;;3.28;;
21192;SDS011;10754;51.106;7.164;2022-10-31T02:16:54;4.07;;;3.30;;
21192;SDS011;10754;51.106;7.164;2022-10-31T02:19:22;5.80;;;3.28;;
21192;SDS011;10754;51.106;7.164;2022-10-31T02:28:20;5.55;;;3.45;;
21192;SDS011;10754;51.106;7.164;2022-10-31T02:31:15;7.65;;;3.47;;
21192;SDS011;10754;51.106;7.164;2022-10-31T02:34:02;4.53;;;3.28;;
21192;SDS011;10754;51.106;7.164;2022-10-31T02:36:47;4.57;;;3.60;;
21192;SDS011;10754;51.106;7.164;2022-10-31T02:39:35;6.03;;;3.83;;
21192;SDS011;10754;51.106;7.164;2022-10-31T02:44:58;7.28;;;3.88;;
21192;SDS011;10754;51.106;7.164;2022-10-31T02:47:33;4.57;;;3.70;;
21192;SDS011;10754;51.106;7.164;2022-10-31T02:50:36;4.50;;;3.72;;
21192;SDS011;10754;51.106;7.164;2022-10-31T02:52:56;4.75;;;3.15;;
21192;SDS011;10754;51.106;7.164;2022-10-31T02:57:47;6.22;;;3.75;;
21192;SDS011;10754;51.106;7.164;2022-10-31T03:00:15;6.40;;;4.32;;
21192;SDS011;10754;51.106;7.164;2022-10-31T03:10:41;4.43;;;3.60;;
21192;SDS011;10754;51.106;7.164;2022-10-31T03:15:49;4.10;;;3.70;;
21192;SDS011;10754;51.106;7.164;2022-10-31T03:21:00;4.82;;;3.45;;
21192;SDS011;10754;51.106;7.164;2022-10-31T03:23:32;6.75;;;3.90;;
21192;SDS011;10754;51.106;7.164;2022-10-31T03:26:01;7.57;;;4.00;;
21192;SDS011;10754;51.106;7.164;2022-10-31T03:28:31;4.85;;;3.55;;
21192;SDS011;10754;51.106;7.164;2022-10-31T03:31:02;11.27;;;3.92;;
21192;SDS011;10754;51.106;7.164;2022-10-31T03:33:30;5.00;;;3.70;;
21192;SDS011;10754;51.106;7.164;2022-10-31T03:35:59;6.15;;;3.60;;
21192;SDS011;10754;51.106;7.164;2022-10-31T03:38:27;5.30;;;3.10;;
21192;SDS011;10754;51.106;7.164;2022-10-31T03:40:54;5.22;;;3.38;;
21192;SDS011;10754;51.106;7.164;2022-10-31T03:43:24;4.45;;;3.35;;
21192;SDS011;10754;51.106;7.164;2022-10-31T03:45:53;6.70;;;3.55;;
21192;SDS011;10754;51.106;7.164;2022-10-31T03:48:19;4.88;;;3.47;;
21192;SDS011;10754;51.106;7.164;2022-10-31T03:53:16;6.53;;;4.40;;
21192;SDS011;10754;51.106;7.164;2022-10-31T03:55:49;5.57;;;3.78;;
21192;SDS011;10754;51.106;7.164;2022-10-31T03:58:28;7.57;;;4.22;;
21192;SDS011;10754;51.106;7.164;2022-10-31T04:00:57;7.20;;;4.10;;
21192;SDS011;10754;51.106;7.164;2022-10-31T04:03:26;7.88;;;4.57;;
21192;SDS011;10754;51.106;7.164;2022-10-31T04:05:55;6.18;;;4.28;;
21192;SDS011;10754;51.106;7.164;2022-10-31T04:08:24;10.50;;;7.40;;
21192;SDS011;10754;51.106;7.164;2022-10-31T04:10:52;8.85;;;7.22;;
21192;SDS011;10754;51.106;7.164;2022-10-31T04:13:22;8.30;;;5.40;;
21192;SDS011;10754;51.106;7.164;2022-10-31T04:15:52;8.75;;;5.40;;
21192;SDS011;10754;51.106;7.164;2022-10-31T04:18:19;9.25;;;6.28;;
21192;SDS011;10754;51.106;7.164;2022-10-31T04:20:47;7.75;;;5.30;;
21192;SDS011;10754;51.106;7.164;2022-10-31T04:23:19;8.00;;;4.78;;
21192;SDS011;10754;51.106;7.164;2022-10-31T04:25:47;8.93;;;4.50;;
21192;SDS011;10754;51.106;7.164;2022-10-31T04:28:12;7.00;;;4.90;;
21192;SDS011;10754;51.106;7.164;2022-10-31T04:30:38;8.05;;;4.38;;
21192;SDS011;10754;51.106;7.164;2022-10-31T04:33:03;7.85;;;4.32;;
21192;SDS011;10754;51.106;7.164;2022-10-31T04:35:29;9.60;;;5.25;;
21192;SDS011;10754;51.106;7.164;2022-10-31T04:37:55;6.40;;;5.78;;
21192;SDS011;10754;51.106;7.164;2022-10-31T04:40:20;9.32;;;5.85;;
21192;SDS011;10754;51.106;7.164;2022-10-31T04:42:45;5.65;;;4.18;;
21192;SDS011;10754;51.106;7.164;2022-10-31T04:45:11;6.22;;;4.53;;
21192;SDS011;10754;51.106;7.164;2022-10-31T04:47:36;4.47;;;4.05;;
21192;SDS011;10754;51.106;7.164;2022-10-31T04:50:02;6.15;;;4.85;;
21192;SDS011;10754;51.106;7.164;2022-10-31T04:52:28;6.03;;;4.38;;
21192;SDS011;10754;51.106;7.164;2022-10-31T04:54:53;7.32;;;5.10;;
21192;SDS011;10754;51.106;7.164;2022-10-31T04:57:19;6.97;;;4.72;;
21192;SDS011;10754;51.106;7.164;2022-10-31T04:59:44;8.43;;;5.30;;
21192;SDS011;10754;51.106;7.164;2022-10-31T05:02:10;7.10;;;4.50;;
21192;SDS011;10754;51.106;7.164;2022-10-31T05:04:35;7.35;;;4.60;;
21192;SDS011;10754;51.106;7.164;2022-10-31T05:07:01;9.45;;;4.70;;
21192;SDS011;10754;51.106;7.164;2022-10-31T05:09:26;6.97;;;4.40;;
21192;SDS011;10754;51.106;7.164;2022-10-31T05:11:52;9.32;;;4.35;;
21192;SDS011;10754;51.106;7.164;2022-10-31T05:14:17;6.85;;;4.78;;
21192;SDS011;10754;51.106;7.164;2022-10-31T05:16:43;4.43;;;3.85;;
21192;SDS011;10754;51.106;7.164;2022-10-31T05:19:08;8.43;;;4.57;;
21192;SDS011;10754;51.106;7.164;2022-10-31T05:21:34;5.90;;;4.40;;
21192;SDS011;10754;51.106;7.164;2022-10-31T05:23:59;8.00;;;5.35;;
21192;SDS011;10754;51.106;7.164;2022-10-31T05:26:25;6.00;;;5.38;;
21192;SDS011;10754;51.106;7.164;2022-10-31T05:28:51;9.25;;;5.50;;
21192;SDS011;10754;51.106;7.164;2022-10-31T05:31:16;8.82;;;5.20;;
21192;SDS011;10754;51.106;7.164;2022-10-31T05:33:42;10.07;;;5.30;;
21192;SDS011;10754;51.106;7.164;2022-10-31T05:36:07;9.77;;;4.90;;
21192;SDS011;10754;51.106;7.164;2022-10-31T05:38:33;9.48;;;5.75;;
21192;SDS011;10754;51.106;7.164;2022-10-31T05:40:58;6.20;;;5.03;;
21192;SDS011;10754;51.106;7.164;2022-10-31T05:43:27;13.40;;;5.47;;
21192;SDS011;10754;51.106;7.164;2022-10-31T05:45:53;12.73;;;5.82;;
21192;SDS011;10754;51.106;7.164;2022-10-31T05:48:19;8.00;;;5.22;;
21192;SDS011;10754;51.106;7.164;2022-10-31T05:50:47;7.20;;;5.32;;
21192;SDS011;10754;51.106;7.164;2022-10-31T05:53:13;7.75;;;5.70;;
21192;SDS011;10754;51.106;7.164;2022-10-31T05:55:39;7.32;;;5.38;;
21192;SDS011;10754;51.106;7.164;2022-10-31T05:58:05;7.32;;;5.32;;
21192;SDS011;10754;51.106;7.164;2022-10-31T06:00:31;7.78;;;4.95;;
21192;SDS011;10754;51.106;7.164;2022-10-31T06:02:59;9.88;;;5.35;;
21192;SDS011;10754;51.106;7.164;2022-10-31T06:05:26;7.70;;;5.13;;
21192;SDS011;10754;51.106;7.164;2022-10-31T06:07:52;9.23;;;4.97;;
21192;SDS011;10754;51.106;7.164;2022-10-31T06:10:18;5.47;;;4.70;;
21192;SDS011;10754;51.106;7.164;2022-10-31T06:12:45;7.15;;;4.93;;
21192;SDS011;10754;51.106;7.164;2022-10-31T06:15:11;6.18;;;4.55;;
21192;SDS011;10754;51.106;7.164;2022-10-31T06:17:37;8.68;;;4.97;;
21192;SDS011;10754;51.106;7.164;2022-10-31T06:20:02;7.70;;;4.82;;
21192;SDS011;10754;51.106;7.164;2022-10-31T06:22:28;7.78;;;5.28;;
21192;SDS011;10754;51.106;7.164;2022-10-31T06:24:54;6.53;;;4.97;;
21192;SDS011;10754;51.106;7.164;2022-10-31T06:27:20;8.02;;;4.75;;
21192;SDS011;10754;51.106;7.164;2022-10-31T06:29:45;7.20;;;5.18;;
21192;SDS011;10754;51.106;7.164;2022-10-31T06:32:11;8.02;;;5.45;;
21192;SDS011;10754;51.106;7.164;2022-10-31T06:34:38;6.80;;;4.78;;
21192;SDS011;10754;51.106;7.164;2022-10-31T06:37:05;9.00;;;5.15;;
21192;SDS011;10754;51.106;7.164;2022-10-31T06:39:31;8.20;;;5.40;;
21192;SDS011;10754;51.106;7.164;2022-10-31T06:41:57;7.05;;;4.65;;
21192;SDS011;10754;51.106;7.164;2022-10-31T06:44:22;7.50;;;4.47;;
21192;SDS011;10754;51.106;7.164;2022-10-31T06:46:48;8.45;;;5.32;;
21192;SDS011;10754;51.106;7.164;2022-10-31T06:49:13;9.02;;;5.50;;
21192;SDS011;10754;51.106;7.164;2022-10-31T06:51:39;5.85;;;5.25;;
21192;SDS011;10754;51.106;7.164;2022-10-31T06:54:04;6.13;;;4.85;;
21192;SDS011;10754;51.106;7.164;2022-10-31T06:56:30;5.88;;;5.28;;
21192;SDS011;10754;51.106;7.164;2022-10-31T06:58:55;6.20;;;5.60;;
21192;SDS011;10754;51.106;7.164;2022-10-31T07:01:21;5.40;;;4.63;;
21192;SDS011;10754;51.106;7.164;2022-10-31T07:03:46;8.35;;;4.70;;
21192;SDS011;10754;51.106;7.164;2022-10-31T07:06:12;8.05;;;4.57;;
21192;SDS011;10754;51.106;7.164;2022-10-31T07:08:37;5.70;;;4.07;;
21192;SDS011;10754;51.106;7.164;2022-10-31T07:11:03;9.40;;;5.20;;
21192;SDS011;10754;51.106;7.164;2022-10-31T07:13:28;8.27;;;4.78;;
21192;SDS011;10754;51.106;7.164;2022-10-31T07:16:00;8.05;;;4.70;;
21192;SDS011;10754;51.106;7.164;2022-10-31T07:18:29;7.90;;;5.03;;
21192;SDS011;10754;51.106;7.164;2022-10-31T07:20:54;4.05;;;3.65;;
21192;SDS011;10754;51.106;7.164;2022-10-31T07:23:20;5.82;;;4.50;;
21192;SDS011;10754;51.106;7.164;2022-10-31T07:25:46;6.25;;;4.65;;
21192;SDS011;10754;51.106;7.164;2022-10-31T07:28:12;6.05;;;4.65;;
21192;SDS011;10754;51.106;7.164;2022-10-31T07:30:38;6.82;;;4.30;;
21192;SDS011;10754;51.106;7.164;2022-10-31T07:33:04;7.90;;;4.43;;
21192;SDS011;10754;51.106;7.164;2022-10-31T07:35:30;9.18;;;5.80;;
21192;SDS011;10754;51.106;7.164;2022-10-31T07:37:56;9.35;;;6.72;;
21192;SDS011;10754;51.106;7.164;2022-10-31T07:40:23;6.22;;;4.20;;
21192;SDS011;10754;51.106;7.164;2022-10-31T07:42:50;9.18;;;6.20;;
21192;SDS011;10754;51.106;7.164;2022-10-31T07:45:17;6.20;;;5.38;;
21192;SDS011;10754;51.106;7.164;2022-10-31T07:50:12;6.72;;;5.72;;
21192;SDS011;10754;51.106;7.164;2022-10-31T07:52:39;6.85;;;5.70;;
21192;SDS011;10754;51.106;7.164;2022-10-31T07:55:05;9.20;;;5.40;;
21192;SDS011;10754;51.106;7.164;2022-10-31T07:57:31;8.20;;;6.10;;
21192;SDS011;10754;51.106;7.164;2022-10-31T07:59:57;9.20;;;5.85;;
21192;SDS011;10754;51.106;7.164;2022-10-31T08:02:22;11.05;;;6.88;;
21192;SDS011;10754;51.106;7.164;2022-10-31T08:04:48;7.65;;;4.97;;
21192;SDS011;10754;51.106;7.164;2022-10-31T08:07:14;7.60;;;4.50;;
21192;SDS011;10754;51.106;7.164;2022-10-31T08:09:40;6.45;;;4.85;;
21192;SDS011;10754;51.106;7.164;2022-10-31T08:12:05;6.68;;;4.75;;
21192;SDS011;10754;51.106;7.164;2022-10-31T08:14:31;8.50;;;5.13;;
21192;SDS011;10754;51.106;7.164;2022-10-31T08:16:56;9.95;;;5.43;;
21192;SDS011;10754;51.106;7.164;2022-10-31T08:19:22;7.72;;;5.75;;
21192;SDS011;10754;51.106;7.164;2022-10-31T08:21:50;12.18;;;6.28;;
21192;SDS011;10754;51.106;7.164;2022-10-31T08:24:16;7.75;;;6.22;;
21192;SDS011;10754;51.106;7.164;2022-10-31T08:26:42;9.73;;;6.63;;
21192;SDS011;10754;51.106;7.164;2022-10-31T08:29:07;9.27;;;6.05;;
21192;SDS011;10754;51.106;7.164;2022-10-31T08:31:33;7.00;;;5.43;;
21192;SDS011;10754;51.106;7.164;2022-10-31T08:33:59;8.90;;;6.10;;
21192;SDS011;10754;51.106;7.164;2022-10-31T08:36:24;7.75;;;6.03;;
21192;SDS011;10754;51.106;7.164;2022-10-31T08:38:50;9.27;;;5.75;;
21192;SDS011;10754;51.106;7.164;2022-10-31T08:41:15;8.52;;;5.95;;
21192;SDS011;10754;51.106;7.164;2022-10-31T08:43:41;9.07;;;6.35;;
21192;SDS011;10754;51.106;7.164;2022-10-31T08:46:06;10.52;;;6.18;;
21192;SDS011;10754;51.106;7.164;2022-10-31T08:48:32;9.98;;;6.45;;
21192;SDS011;10754;51.106;7.164;2022-10-31T08:50:58;8.65;;;4.90;;
21192;SDS011;10754;51.106;7.164;2022-10-31T08:53:24;6.78;;;5.60;;
21192;SDS011;10754;51.106;7.164;2022-10-31T08:55:50;7.60;;;5.13;;
21192;SDS011;10754;51.106;7.164;2022-10-31T08:58:19;8.68;;;6.15;;
21192;SDS011;10754;51.106;7.164;2022-10-31T09:00:45;9.13;;;6.38;;
21192;SDS011;10754;51.106;7.164;2022-10-31T09:03:13;10.38;;;6.93;;
21192;SDS011;10754;51.106;7.164;2022-10-31T09:05:46;7.40;;;5.88;;
21192;SDS011;10754;51.106;7.164;2022-10-31T09:08:12;7.90;;;6.03;;
21192;SDS011;10754;51.106;7.164;2022-10-31T09:10:38;13.60;;;6.82;;
21192;SDS011;10754;51.106;7.164;2022-10-31T09:13:06;10.68;;;6.57;;
21192;SDS011;10754;51.106;7.164;2022-10-31T09:15:35;10.48;;;6.97;;
21192;SDS011;10754;51.106;7.164;2022-10-31T09:18:03;9.27;;;6.47;;
21192;SDS011;10754;51.106;7.164;2022-10-31T09:20:30;7.40;;;5.75;;
21192;SDS011;10754;51.106;7.164;2022-10-31T09:22:59;8.05;;;6.47;;
21192;SDS011;10754;51.106;7.164;2022-10-31T09:25:27;10.93;;;7.05;;
21192;SDS011;10754;51.106;7.164;2022-10-31T09:27:56;10.93;;;7.68;;
21192;SDS011;10754;51.106;7.164;2022-10-31T09:30:23;8.23;;;6.40;;
21192;SDS011;10754;51.106;7.164;2022-10-31T09:32:54;11.05;;;7.45;;
21192;SDS011;10754;51.106;7.164;2022-10-31T09:35:20;8.52;;;6.50;;
21192;SDS011;10754;51.106;7.164;2022-10-31T09:37:46;12.73;;;7.15;;
21192;SDS011;10754;51.106;7.164;2022-10-31T09:40:11;8.88;;;6.32;;
21192;SDS011;10754;51.106;7.164;2022-10-31T09:42:40;10.82;;;6.43;;
21192;SDS011;10754;51.106;7.164;2022-10-31T09:45:14;11.48;;;6.90;;
21192;SDS011;10754;51.106;7.164;2022-10-31T09:48:08;10.10;;;6.53;;
21192;SDS011;10754;51.106;7.164;2022-10-31T09:51:07;10.45;;;6.90;;
21192;SDS011;10754;51.106;7.164;2022-10-31T09:53:39;8.77;;;7.25;;
21192;SDS011;10754;51.106;7.164;2022-10-31T09:56:25;13.13;;;7.22;;
21192;SDS011;10754;51.106;7.164;2022-10-31T09:58:56;8.82;;;6.93;;
21192;SDS011;10754;51.106;7.164;2022-10-31T10:04:22;10.15;;;6.88;;
21192;SDS011;10754;51.106;7.164;2022-10-31T10:06:57;10.05;;;6.93;;
21192;SDS011;10754;51.106;7.164;2022-10-31T10:09:26;10.00;;;6.90;;
21192;SDS011;10754;51.106;7.164;2022-10-31T10:11:55;10.25;;;7.93;;
21192;SDS011;10754;51.106;7.164;2022-10-31T10:15:08;10.50;;;6.18;;
21192;SDS011;10754;51.106;7.164;2022-10-31T10:17:42;15.02;;;6.40;;
21192;SDS011;10754;51.106;7.164;2022-10-31T10:20:31;15.18;;;6.57;;
21192;SDS011;10754;51.106;7.164;2022-10-31T10:23:02;10.18;;;6.43;;
21192;SDS011;10754;51.106;7.164;2022-10-31T10:25:39;9.48;;;6.28;;
21192;SDS011;10754;51.106;7.164;2022-10-31T10:33:37;9.65;;;5.28;;
21192;SDS011;10754;51.106;7.164;2022-10-31T10:36:09;7.45;;;5.50;;
21192;SDS011;10754;51.106;7.164;2022-10-31T10:41:38;6.95;;;4.50;;
21192;SDS011;10754;51.106;7.164;2022-10-31T10:44:09;9.98;;;4.85;;
21192;SDS011;10754;51.106;7.164;2022-10-31T10:46:48;7.57;;;4.78;;
21192;SDS011;10754;51.106;7.164;2022-10-31T10:49:49;12.18;;;4.32;;
21192;SDS011;10754;51.106;7.164;2022-10-31T10:52:23;10.20;;;4.35;;
21192;SDS011;10754;51.106;7.164;2022-10-31T10:55:09;10.15;;;4.88;;
21192;SDS011;10754;51.106;7.164;2022-10-31T10:57:51;7.13;;;4.15;;
21192;SDS011;10754;51.106;7.164;2022-10-31T11:00:45;9.20;;;4.40;;
21192;SDS011;10754;51.106;7.164;2022-10-31T11:03:13;8.15;;;3.97;;
21192;SDS011;10754;51.106;7.164;2022-10-31T11:05:41;6.05;;;4.18;;
21192;SDS011;10754;51.106;7.164;2022-10-31T11:08:11;8.63;;;4.35;;
21192;SDS011;10754;51.106;7.164;2022-10-31T11:10:56;8.95;;;4.18;;
21192;SDS011;10754;51.106;7.164;2022-10-31T11:13:48;8.27;;;4.10;;
21192;SDS011;10754;51.106;7.164;2022-10-31T11:16:26;5.43;;;3.75;;
21192;SDS011;10754;51.106;7.164;2022-10-31T11:18:52;9.10;;;3.97;;
21192;SDS011;10754;51.106;7.164;2022-10-31T11:21:28;4.75;;;3.28;;
21192;SDS011;10754;51.106;7.164;2022-10-31T11:24:02;6.63;;;3.80;;
21192;SDS011;10754;51.106;7.164;2022-10-31T11:26:33;5.93;;;3.90;;
21192;SDS011;10754;51.106;7.164;2022-10-31T11:29:00;6.32;;;3.85;;
21192;SDS011;10754;51.106;7.164;2022-10-31T11:31:28;6.03;;;3.50;;
21192;SDS011;10754;51.106;7.164;2022-10-31T11:34:00;9.65;;;4.10;;
21192;SDS011;10754;51.106;7.164;2022-10-31T11:36:30;9.00;;;3.78;;
21192;SDS011;10754;51.106;7.164;2022-10-31T11:38:58;5.85;;;3.45;;
21192;SDS011;10754;51.106;7.164;2022-10-31T11:41:33;9.43;;;3.95;;
21192;SDS011;10754;51.106;7.164;2022-10-31T11:44:01;7.28;;;3.67;;
21192;SDS011;10754;51.106;7.164;2022-10-31T11:46:39;7.72;;;3.47;;
21192;SDS011;10754;51.106;7.164;2022-10-31T11:49:23;8.10;;;3.55;;
21192;SDS011;10754;51.106;7.164;2022-10-31T11:52:14;6.85;;;3.55;;
21192;SDS011;10754;51.106;7.164;2022-10-31T11:59:54;7.68;;;3.55;;
21192;SDS011;10754;51.106;7.164;2022-10-31T12:02:28;7.20;;;3.50;;
21192;SDS011;10754;51.106;7.164;2022-10-31T12:07:29;6.65;;;3.65;;
21192;SDS011;10754;51.106;7.164;2022-10-31T12:09:55;6.68;;;3.08;;
21192;SDS011;10754;51.106;7.164;2022-10-31T12:17:49;6.97;;;3.08;;
21192;SDS011;10754;51.106;7.164;2022-10-31T12:36:26;3.60;;;2.65;;
21192;SDS011;10754;51.106;7.164;2022-10-31T12:44:42;6.05;;;2.83;;
21192;SDS011;10754;51.106;7.164;2022-10-31T12:49:54;7.93;;;3.22;;
21192;SDS011;10754;51.106;7.164;2022-10-31T12:57:58;4.13;;;3.17;;
21192;SDS011;10754;51.106;7.164;2022-10-31T13:00:28;7.75;;;3.15;;
21192;SDS011;10754;51.106;7.164;2022-10-31T13:02:59;4.47;;;2.90;;
21192;SDS011;10754;51.106;7.164;2022-10-31T13:05:48;6.80;;;3.15;;
21192;SDS011;10754;51.106;7.164;2022-10-31T13:08:30;6.05;;;2.97;;
21192;SDS011;10754;51.106;7.164;2022-10-31T13:11:16;5.45;;;3.03;;
21192;SDS011;10754;51.106;7.164;2022-10-31T13:14:01;4.47;;;2.60;;
21192;SDS011;10754;51.106;7.164;2022-10-31T13:16:36;10.32;;;3.60;;
21192;SDS011;10754;51.106;7.164;2022-10-31T13:19:22;7.30;;;2.75;;
21192;SDS011;10754;51.106;7.164;2022-10-31T13:25:09;6.18;;;3.28;;
21192;SDS011;10754;51.106;7.164;2022-10-31T13:28:24;5.65;;;2.88;;
21192;SDS011;10754;51.106;7.164;2022-10-31T13:30:31;8.75;;;3.40;;
21192;SDS011;10754;51.106;7.164;2022-10-31T13:33:04;7.72;;;3.33;;
21192;SDS011;10754;51.106;7.164;2022-10-31T13:35:53;5.65;;;3.20;;
21192;SDS011;10754;51.106;7.164;2022-10-31T13:38:40;5.50;;;3.00;;
21192;SDS011;10754;51.106;7.164;2022-10-31T13:41:20;7.18;;;2.95;;
21192;SDS011;10754;51.106;7.164;2022-10-31T13:44:20;8.45;;;2.70;;
21192;SDS011;10754;51.106;7.164;2022-10-31T13:46:52;9.73;;;3.08;;
21192;SDS011;10754;51.106;7.164;2022-10-31T13:52:04;5.68;;;3.03;;
21192;SDS011;10754;51.106;7.164;2022-10-31T13:54:34;5.32;;;2.95;;
21192;SDS011;10754;51.106;7.164;2022-10-31T13:57:00;8.18;;;3.08;;
21192;SDS011;10754;51.106;7.164;2022-10-31T13:59:26;4.28;;;2.45;;
21192;SDS011;10754;51.106;7.164;2022-10-31T14:02:00;5.25;;;2.50;;
21192;SDS011;10754;51.106;7.164;2022-10-31T14:04:38;5.88;;;2.75;;
21192;SDS011;10754;51.106;7.164;2022-10-31T14:07:11;4.68;;;3.03;;
21192;SDS011;10754;51.106;7.164;2022-10-31T14:09:54;7.22;;;3.25;;
21192;SDS011;10754;51.106;7.164;2022-10-31T14:15:05;9.68;;;3.90;;
21192;SDS011;10754;51.106;7.164;2022-10-31T14:17:50;5.72;;;2.92;;
21192;SDS011;10754;51.106;7.164;2022-10-31T14:20:39;10.23;;;2.83;;
21192;SDS011;10754;51.106;7.164;2022-10-31T14:23:25;6.57;;;3.05;;
21192;SDS011;10754;51.106;7.164;2022-10-31T14:28:50;7.18;;;2.97;;
21192;SDS011;10754;51.106;7.164;2022-10-31T14:31:35;8.57;;;3.35;;
21192;SDS011;10754;51.106;7.164;2022-10-31T14:42:13;8.05;;;2.75;;
21192;SDS011;10754;51.106;7.164;2022-10-31T14:47:48;7.55;;;2.63;;
21192;SDS011;10754;51.106;7.164;2022-10-31T14:53:18;6.82;;;2.63;;
21192;SDS011;10754;51.106;7.164;2022-10-31T14:55:58;4.55;;;2.38;;
21192;SDS011;10754;51.106;7.164;2022-10-31T14:58:28;7.88;;;3.00;;
21192;SDS011;10754;51.106;7.164;2022-10-31T15:01:00;9.50;;;2.80;;
21192;SDS011;10754;51.106;7.164;2022-10-31T15:06:01;6.22;;;2.97;;
21192;SDS011;10754;51.106;7.164;2022-10-31T15:11:08;6.97;;;2.65;;
21192;SDS011;10754;51.106;7.164;2022-10-31T15:16:20;5.28;;;2.40;;
21192;SDS011;10754;51.106;7.164;2022-10-31T15:18:53;9.48;;;2.55;;
21192;SDS011;10754;51.106;7.164;2022-10-31T15:21:24;4.05;;;2.30;;
21192;SDS011;10754;51.106;7.164;2022-10-31T15:23:53;6.90;;;2.88;;
21192;SDS011;10754;51.106;7.164;2022-10-31T15:26:22;6.50;;;2.47;;
21192;SDS011;10754;51.106;7.164;2022-10-31T15:31:51;7.05;;;3.30;;
21192;SDS011;10754;51.106;7.164;2022-10-31T15:34:32;8.75;;;2.63;;
21192;SDS011;10754;51.106;7.164;2022-10-31T15:37:04;9.38;;;3.00;;
21192;SDS011;10754;51.106;7.164;2022-10-31T15:39:38;5.65;;;2.50;;
21192;SDS011;10754;51.106;7.164;2022-10-31T15:42:04;7.13;;;2.65;;
21192;SDS011;10754;51.106;7.164;2022-10-31T15:44:40;10.77;;;2.72;;
21192;SDS011;10754;51.106;7.164;2022-10-31T15:47:13;6.25;;;2.75;;
21192;SDS011;10754;51.106;7.164;2022-10-31T15:49:42;6.63;;;2.90;;
21192;SDS011;10754;51.106;7.164;2022-10-31T15:52:15;8.30;;;2.92;;
21192;SDS011;10754;51.106;7.164;2022-10-31T15:55:01;7.70;;;2.38;;
21192;SDS011;10754;51.106;7.164;2022-10-31T15:57:30;9.95;;;3.67;;
21192;SDS011;10754;51.106;7.164;2022-10-31T15:59:56;6.97;;;3.47;;
21192;SDS011;10754;51.106;7.164;2022-10-31T16:02:23;9.65;;;4.40;;
21192;SDS011;10754;51.106;7.164;2022-10-31T16:04:52;17.23;;;15.48;;
21192;SDS011;10754;51.106;7.164;2022-10-31T16:07:23;23.27;;;20.90;;
21192;SDS011;10754;51.106;7.164;2022-10-31T16:09:50;6.55;;;3.47;;
21192;SDS011;10754;51.106;7.164;2022-10-31T16:12:18;10.00;;;5.43;;
21192;SDS011;10754;51.106;7.164;2022-10-31T16:14:44;9.60;;;8.50;;
21192;SDS011;10754;51.106;7.164;2022-10-31T16:17:12;8.07;;;4.72;;
21192;SDS011;10754;51.106;7.164;2022-10-31T16:19:46;10.20;;;3.45;;
21192;SDS011;10754;51.106;7.164;2022-10-31T16:22:30;4.30;;;2.42;;
21192;SDS011;10754;51.106;7.164;2022-10-31T16:27:27;7.90;;;3.00;;
21192;SDS011;10754;51.106;7.164;2022-10-31T16:29:56;6.63;;;3.10;;
21192;SDS011;10754;51.106;7.164;2022-10-31T16:32:37;9.98;;;4.32;;
21192;SDS011;10754;51.106;7.164;2022-10-31T16:37:50;6.40;;;3.40;;
21192;SDS011;10754;51.106;7.164;2022-10-31T16:40:15;11.82;;;7.43;;
21192;SDS011;10754;51.106;7.164;2022-10-31T16:42:41;5.47;;;3.75;;
21192;SDS011;10754;51.106;7.164;2022-10-31T16:45:08;6.35;;;3.17;;
21192;SDS011;10754;51.106;7.164;2022-10-31T16:47:40;9.80;;;4.13;;
21192;SDS011;10754;51.106;7.164;2022-10-31T16:50:12;8.60;;;4.25;;
21192;SDS011;10754;51.106;7.164;2022-10-31T16:52:39;4.45;;;4.05;;
21192;SDS011;10754;51.106;7.164;2022-10-31T16:55:04;4.88;;;2.60;;
21192;SDS011;10754;51.106;7.164;2022-10-31T16:57:30;7.18;;;2.83;;
21192;SDS011;10754;51.106;7.164;2022-10-31T16:59:56;5.95;;;2.50;;
21192;SDS011;10754;51.106;7.164;2022-10-31T17:02:22;7.00;;;2.42;;
21192;SDS011;10754;51.106;7.164;2022-10-31T17:04:48;10.75;;;4.35;;
21192;SDS011;10754;51.106;7.164;2022-10-31T17:07:13;7.70;;;3.63;;
21192;SDS011;10754;51.106;7.164;2022-10-31T17:09:39;4.40;;;2.40;;
21192;SDS011;10754;51.106;7.164;2022-10-31T17:12:05;6.50;;;2.85;;
21192;SDS011;10754;51.106;7.164;2022-10-31T17:14:37;7.13;;;3.03;;